Time;durP1;ratioP1;P1;durP2;ratioP2;P2;SDS_P1;SDS_P2;PMS_P1;PMS_P2;Temp;Humidity;BMP_temperature;BMP_pressure;BME280_temperature;BME280_humidity;BME280_pressure;Samples;Min_cycle;Max_cycle;Signal;HPM_P1;HPM_P2
2023/07/13 00:00:52;;;;;;;;;;;26.70;94.20;;;;;;5114886;28;19985;-64
2023/07/13 00:03:18;;;;;;;;;;;26.70;94.30;;;;;;5114690;28;20087;-63
2023/07/13 00:05:43;;;;;;;;;;;26.70;94.40;;;;;;5114720;28;20067;-62
2023/07/13 00:08:11;;;;;;;;;;;26.70;94.20;;;;;;5114762;28;20029;-63
2023/07/13 00:10:43;;;;;;;;;;;26.60;94.20;;;;;;5114891;28;20000;-65
2023/07/13 00:13:08;;;;;;;;;;;26.60;94.10;;;;;;5114699;28;19984;-65
2023/07/13 00:15:35;;;;;;;;;;;26.60;94.00;;;;;;5114564;28;20354;-64
2023/07/13 00:18:01;;;;;;;;;;;26.50;94.00;;;;;;5114653;28;20336;-65
2023/07/13 00:20:26;;;;;;;;;;;26.50;93.90;;;;;;5114576;28;19989;-65
2023/07/13 00:22:53;;;;;;;;;;;26.40;94.10;;;;;;5114578;28;20011;-64
2023/07/13 00:25:19;;;;;;;;;;;26.30;94.30;;;;;;5114424;28;20042;-64
2023/07/13 00:27:48;;;;;;;;;;;26.30;94.80;;;;;;5114591;28;19989;-63
2023/07/13 00:30:14;;;;;;;;;;;26.10;94.80;;;;;;5114505;28;19988;-63
2023/07/13 00:32:40;;;;;;;;;;;26.10;94.70;;;;;;5114328;28;20092;-64
2023/07/13 00:35:06;;;;;;;;;;;26.10;94.80;;;;;;5114425;28;20079;-63
2023/07/13 00:37:33;;;;;;;;;;;26.10;94.80;;;;;;5114413;28;19991;-64
2023/07/13 00:39:59;;;;;;;;;;;26.10;94.70;;;;;;5114170;28;20083;-64
2023/07/13 00:42:24;;;;;;;;;;;26.10;94.40;;;;;;5113877;28;20019;-64
2023/07/13 00:45:08;;;;;;;;;;;26.10;94.50;;;;;;5114401;28;20035;-64
2023/07/13 00:47:34;;;;;;;;;;;26.00;94.70;;;;;;5114013;28;20507;-62
2023/07/13 00:50:00;;;;;;;;;;;26.10;94.60;;;;;;5114272;28;20057;-64
2023/07/13 00:52:26;;;;;;;;;;;26.10;94.30;;;;;;5114128;28;19984;-63
2023/07/13 00:54:51;;;;;;;;;;;26.10;94.30;;;;;;5114183;28;20350;-63
2023/07/13 00:57:18;;;;;;;;;;;26.00;94.30;;;;;;5114234;28;20091;-64
2023/07/13 00:59:46;;;;;;;;;;;25.90;94.20;;;;;;5114007;28;19991;-64
2023/07/13 01:02:12;;;;;;;;;;;25.90;94.10;;;;;;5114116;28;19995;-65
2023/07/13 01:04:38;;;;;;;;;;;25.80;94.50;;;;;;5114121;28;19988;-63
2023/07/13 01:07:04;;;;;;;;;;;25.80;94.60;;;;;;5114007;28;20008;-65
2023/07/13 01:09:30;;;;;;;;;;;25.80;94.80;;;;;;5113900;28;20079;-65
2023/07/13 01:11:55;;;;;;;;;;;25.80;94.60;;;;;;5114026;28;20028;-63
2023/07/13 01:14:21;;;;;;;;;;;25.80;94.60;;;;;;5113772;28;19984;-62
2023/07/13 01:16:47;;;;;;;;;;;25.80;94.40;;;;;;5113865;28;19992;-64
2023/07/13 01:19:25;;;;;;;;;;;25.80;94.20;;;;;;5114074;28;20347;-63
2023/07/13 01:21:51;;;;;;;;;;;25.70;93.90;;;;;;5114141;28;19996;-64
2023/07/13 01:24:17;;;;;;;;;;;25.70;93.60;;;;;;5114356;28;20361;-62
2023/07/13 01:26:43;;;;;;;;;;;25.60;93.20;;;;;;5113893;28;20008;-63
2023/07/13 01:29:08;;;;;;;;;;;25.60;93.00;;;;;;5113683;28;20043;-63
2023/07/13 01:31:34;;;;;;;;;;;25.50;93.00;;;;;;5114017;28;19989;-63
2023/07/13 01:34:00;;;;;;;;;;;25.30;93.00;;;;;;5113877;28;19988;-62
2023/07/13 01:36:25;;;;;;;;;;;25.30;93.00;;;;;;5113992;28;20000;-63
2023/07/13 01:38:51;;;;;;;;;;;25.30;92.40;;;;;;5113681;28;20458;-63
2023/07/13 01:41:17;;;;;;;;;;;25.20;92.60;;;;;;5113845;28;20354;-62
2023/07/13 01:43:42;;;;;;;;;;;25.20;92.60;;;;;;5113648;28;19988;-65
2023/07/13 01:46:08;;;;;;;;;;;25.10;92.40;;;;;;5113529;28;20016;-62
2023/07/13 01:48:33;;;;;;;;;;;25.10;92.10;;;;;;5113440;28;20020;-63
2023/07/13 01:50:59;;;;;;;;;;;25.10;91.90;;;;;;5113718;28;20453;-63
2023/07/13 01:53:25;;;;;;;;;;;25.10;91.80;;;;;;5113756;28;20378;-65
2023/07/13 01:55:50;;;;;;;;;;;25.10;91.40;;;;;;5117369;28;19984;-63
2023/07/13 01:58:16;;;;;;;;;;;25.10;91.30;;;;;;5117278;28;20020;-64
2023/07/13 02:00:41;;;;;;;;;;;25.10;91.10;;;;;;5117376;28;19984;-63
2023/07/13 02:03:07;;;;;;;;;;;25.10;90.90;;;;;;5117440;28;20366;-65
2023/07/13 02:05:32;;;;;;;;;;;25.00;91.00;;;;;;5117196;28;20009;-65
2023/07/13 02:07:58;;;;;;;;;;;25.00;91.10;;;;;;5117180;28;20037;-63
2023/07/13 02:10:24;;;;;;;;;;;24.90;91.60;;;;;;5117325;28;20343;-64
2023/07/13 02:12:50;;;;;;;;;;;24.80;91.90;;;;;;5116784;28;20079;-64
2023/07/13 02:15:16;;;;;;;;;;;24.70;92.40;;;;;;5117353;28;20160;-63
2023/07/13 02:17:41;;;;;;;;;;;24.50;93.30;;;;;;5116865;28;20431;-65
2023/07/13 02:20:07;;;;;;;;;;;24.40;92.90;;;;;;5116996;28;19985;-63
2023/07/13 02:22:33;;;;;;;;;;;24.50;92.40;;;;;;5116903;28;19984;-64
2023/07/13 02:24:59;;;;;;;;;;;24.60;92.20;;;;;;5116814;28;20457;-63
2023/07/13 02:27:24;;;;;;;;;;;24.50;92.30;;;;;;5116479;28;20016;-63
2023/07/13 02:29:51;;;;;;;;;;;24.50;92.20;;;;;;5116768;28;20089;-62
2023/07/13 02:32:17;;;;;;;;;;;24.40;92.40;;;;;;5116660;28;20462;-65
2023/07/13 02:34:42;;;;;;;;;;;24.40;92.50;;;;;;5116530;28;20027;-63
2023/07/13 02:37:08;;;;;;;;;;;24.30;91.80;;;;;;5116835;28;19992;-64
2023/07/13 02:39:33;;;;;;;;;;;24.30;91.90;;;;;;5116616;28;20472;-63
2023/07/13 02:42:00;;;;;;;;;;;24.20;91.80;;;;;;5116179;28;20007;-64
2023/07/13 02:44:26;;;;;;;;;;;24.20;91.60;;;;;;5116555;28;20007;-64
2023/07/13 02:46:51;;;;;;;;;;;24.20;91.70;;;;;;5116378;28;20458;-64
2023/07/13 02:49:17;;;;;;;;;;;24.20;91.40;;;;;;5116336;28;20030;-64
2023/07/13 02:51:43;;;;;;;;;;;24.10;91.50;;;;;;5116329;28;20358;-64
2023/07/13 02:54:09;;;;;;;;;;;24.10;90.90;;;;;;5116276;28;19984;-62
2023/07/13 02:56:34;;;;;;;;;;;23.80;90.70;;;;;;5116113;28;20030;-63
2023/07/13 02:59:00;;;;;;;;;;;23.80;90.10;;;;;;5116307;28;19985;-63
2023/07/13 03:01:26;;;;;;;;;;;23.90;90.20;;;;;;5116347;28;20443;-63
2023/07/13 03:03:52;;;;;;;;;;;24.00;90.90;;;;;;5116151;28;20020;-63
2023/07/13 03:06:18;;;;;;;;;;;24.00;91.10;;;;;;5115779;28;20455;-64
2023/07/13 03:08:43;;;;;;;;;;;24.00;91.40;;;;;;5115984;28;20442;-62
2023/07/13 03:11:12;;;;;;;;;;;24.00;91.60;;;;;;5115734;28;19985;-63
2023/07/13 03:13:38;;;;;;;;;;;24.00;90.80;;;;;;5116028;28;20393;-63
2023/07/13 03:16:04;;;;;;;;;;;23.90;90.90;;;;;;5115842;28;19985;-64
2023/07/13 03:18:29;;;;;;;;;;;23.90;90.70;;;;;;5116060;28;20431;-65
2023/07/13 03:20:55;;;;;;;;;;;24.00;90.10;;;;;;5115696;28;20049;-65
2023/07/13 03:23:21;;;;;;;;;;;24.00;90.10;;;;;;5115709;28;19985;-63
2023/07/13 03:25:47;;;;;;;;;;;24.00;90.20;;;;;;5115449;28;20019;-63
2023/07/13 03:28:13;;;;;;;;;;;24.10;90.40;;;;;;5115722;28;19996;-63
2023/07/13 03:30:38;;;;;;;;;;;24.10;90.50;;;;;;5115644;28;19992;-63
2023/07/13 03:33:04;;;;;;;;;;;24.10;90.70;;;;;;5115558;28;19985;-63
2023/07/13 03:35:30;;;;;;;;;;;24.00;91.10;;;;;;5115538;28;19984;-62
2023/07/13 03:37:56;;;;;;;;;;;24.00;91.40;;;;;;5115676;28;19995;-65
2023/07/13 03:40:22;;;;;;;;;;;24.00;91.30;;;;;;5115130;28;20010;-63
2023/07/13 03:42:47;;;;;;;;;;;24.00;91.30;;;;;;5115334;28;19984;-63
2023/07/13 03:45:13;;;;;;;;;;;24.00;91.60;;;;;;5115059;28;19995;-63
2023/07/13 03:47:38;;;;;;;;;;;24.00;91.60;;;;;;5115059;28;20104;-62
2023/07/13 03:50:06;;;;;;;;;;;24.00;90.90;;;;;;5114396;28;21462;-63
2023/07/13 03:52:32;;;;;;;;;;;24.00;90.90;;;;;;5115319;28;19992;-64
2023/07/13 03:54:58;;;;;;;;;;;24.00;90.70;;;;;;5114847;28;19997;-64
2023/07/13 03:57:23;;;;;;;;;;;24.00;90.30;;;;;;5114923;28;20007;-63
2023/07/13 03:59:49;;;;;;;;;;;24.00;90.20;;;;;;5114880;28;20354;-63
2023/07/13 04:02:14;;;;;;;;;;;23.90;90.50;;;;;;5114959;28;20328;-64
2023/07/13 04:04:40;;;;;;;;;;;24.00;90.80;;;;;;5114873;28;20099;-64
2023/07/13 04:07:08;;;;;;;;;;;24.00;90.70;;;;;;5114770;28;20126;-65
2023/07/13 04:09:33;;;;;;;;;;;24.00;90.50;;;;;;5114847;28;19989;-63
2023/07/13 04:11:59;;;;;;;;;;;24.00;90.60;;;;;;5114812;28;20007;-64
2023/07/13 04:14:24;;;;;;;;;;;24.00;89.80;;;;;;5115033;28;19992;-63
2023/07/13 04:16:50;;;;;;;;;;;24.00;88.30;;;;;;5113885;28;19984;-64
2023/07/13 04:19:16;;;;;;;;;;;24.00;87.40;;;;;;5114719;28;20075;-64
2023/07/13 04:21:41;;;;;;;;;;;24.00;87.30;;;;;;5114799;28;19989;-64
2023/07/13 04:24:07;;;;;;;;;;;23.90;88.10;;;;;;5114360;28;19991;-64
2023/07/13 04:26:35;;;;;;;;;;;24.00;87.90;;;;;;5114777;28;20015;-64
2023/07/13 04:29:03;;;;;;;;;;;24.00;88.30;;;;;;5114515;28;20083;-64
2023/07/13 04:31:29;;;;;;;;;;;24.10;88.70;;;;;;5114385;28;20051;-64
2023/07/13 04:33:55;;;;;;;;;;;24.10;89.20;;;;;;5114419;28;20020;-64
2023/07/13 04:36:20;;;;;;;;;;;24.20;89.30;;;;;;5114725;28;19988;-63
2023/07/13 04:38:46;;;;;;;;;;;24.30;88.80;;;;;;5114073;28;20374;-64
2023/07/13 04:41:12;;;;;;;;;;;24.40;87.00;;;;;;5114321;28;20416;-65
2023/07/13 04:43:37;;;;;;;;;;;24.20;86.70;;;;;;5114300;28;19991;-63
2023/07/13 04:46:04;;;;;;;;;;;24.20;84.10;;;;;;5114101;28;20022;-63
2023/07/13 04:48:29;;;;;;;;;;;24.20;83.10;;;;;;5114011;28;20110;-64
2023/07/13 04:50:56;;;;;;;;;;;24.20;80.90;;;;;;5114197;28;20039;-63
2023/07/13 04:53:22;;;;;;;;;;;24.20;83.00;;;;;;5114012;28;19992;-63
2023/07/13 04:55:48;;;;;;;;;;;24.30;84.00;;;;;;5114131;28;20118;-65
2023/07/13 04:58:13;;;;;;;;;;;24.40;85.10;;;;;;5113912;28;20496;-63
2023/07/13 05:00:39;;;;;;;;;;;24.50;87.70;;;;;;5114330;28;20125;-64
2023/07/13 05:03:05;;;;;;;;;;;24.40;87.80;;;;;;5114194;28;20355;-63
2023/07/13 05:05:30;;;;;;;;;;;24.60;89.20;;;;;;5114250;28;20343;-64
2023/07/13 05:07:56;;;;;;;;;;;24.60;86.30;;;;;;5113780;28;19995;-63
2023/07/13 05:10:22;;;;;;;;;;;24.60;84.30;;;;;;5113934;28;20518;-63
2023/07/13 05:12:47;;;;;;;;;;;24.80;82.50;;;;;;5114085;28;20397;-63
2023/07/13 05:15:14;;;;;;;;;;;24.90;82.50;;;;;;5114233;28;19989;-62
2023/07/13 05:17:40;;;;;;;;;;;25.00;82.90;;;;;;5113869;28;20351;-65
2023/07/13 05:20:06;;;;;;;;;;;25.00;83.40;;;;;;5114162;28;19988;-64
2023/07/13 05:22:32;;;;;;;;;;;25.10;84.10;;;;;;5113897;28;20431;-64
2023/07/13 05:24:58;;;;;;;;;;;25.20;83.30;;;;;;5113734;28;20034;-64
2023/07/13 05:27:23;;;;;;;;;;;25.40;83.70;;;;;;5114206;28;20020;-65
2023/07/13 05:29:49;;;;;;;;;;;25.40;82.40;;;;;;5118064;28;20350;-64
2023/07/13 05:32:15;;;;;;;;;;;25.50;82.10;;;;;;5117924;28;20033;-63
2023/07/13 05:34:40;;;;;;;;;;;25.50;81.10;;;;;;5117734;28;20408;-65
2023/07/13 05:37:06;;;;;;;;;;;25.50;80.30;;;;;;5117780;28;20028;-62
2023/07/13 05:39:31;;;;;;;;;;;25.60;80.20;;;;;;5117829;28;19985;-64
2023/07/13 05:41:57;;;;;;;;;;;25.60;79.70;;;;;;5117683;28;19991;-64
2023/07/13 05:44:23;;;;;;;;;;;25.70;79.30;;;;;;5117526;28;20069;-65
2023/07/13 05:46:48;;;;;;;;;;;25.80;79.00;;;;;;5117590;28;20015;-65
2023/07/13 05:49:14;;;;;;;;;;;25.80;78.80;;;;;;5117276;28;20024;-63
2023/07/13 05:51:39;;;;;;;;;;;26.00;78.10;;;;;;5117326;28;20438;-63
2023/07/13 05:54:05;;;;;;;;;;;26.00;78.40;;;;;;5117549;28;19984;-62
2023/07/13 05:56:30;;;;;;;;;;;26.10;78.30;;;;;;5117300;28;20020;-63
2023/07/13 05:58:56;;;;;;;;;;;26.20;79.60;;;;;;5117314;28;19995;-62
2023/07/13 06:01:23;;;;;;;;;;;26.40;78.40;;;;;;5117398;28;19985;-62
2023/07/13 06:03:49;;;;;;;;;;;26.50;78.10;;;;;;5117295;28;19991;-64
2023/07/13 06:06:14;;;;;;;;;;;26.80;77.70;;;;;;5116912;28;20009;-64
2023/07/13 06:08:40;;;;;;;;;;;27.00;75.90;;;;;;5117250;28;20042;-63
2023/07/13 06:11:17;;;;;;;;;;;27.20;76.70;;;;;;5117015;28;20046;-63
2023/07/13 06:13:43;;;;;;;;;;;27.40;76.40;;;;;;5117069;28;19992;-62
2023/07/13 06:16:08;;;;;;;;;;;27.60;76.30;;;;;;5117267;28;20514;-63
2023/07/13 06:18:35;;;;;;;;;;;27.70;76.50;;;;;;5116962;28;19985;-62
2023/07/13 06:21:01;;;;;;;;;;;27.70;76.30;;;;;;5116653;28;20435;-63
2023/07/13 06:23:26;;;;;;;;;;;27.70;74.90;;;;;;5116936;28;19989;-64
2023/07/13 06:25:52;;;;;;;;;;;27.80;74.40;;;;;;5116805;28;20032;-63
2023/07/13 06:28:18;;;;;;;;;;;27.80;75.80;;;;;;5116627;28;20118;-64
2023/07/13 06:30:43;;;;;;;;;;;27.70;76.50;;;;;;5116757;28;20467;-64
2023/07/13 06:33:09;;;;;;;;;;;27.80;76.50;;;;;;5116736;28;20037;-62
2023/07/13 06:35:34;;;;;;;;;;;28.00;76.20;;;;;;5116603;28;19989;-64
2023/07/13 06:38:00;;;;;;;;;;;28.30;75.00;;;;;;5116792;28;20445;-62
2023/07/13 06:40:28;;;;;;;;;;;28.40;74.60;;;;;;5115950;28;19995;-63
2023/07/13 06:42:53;;;;;;;;;;;28.50;71.70;;;;;;5116536;28;19992;-64
2023/07/13 06:45:19;;;;;;;;;;;28.60;72.90;;;;;;5116502;28;19985;-65
2023/07/13 06:47:44;;;;;;;;;;;28.70;73.30;;;;;;5116258;28;20027;-63
2023/07/13 06:50:10;;;;;;;;;;;29.00;73.30;;;;;;5116067;28;19988;-63
2023/07/13 06:52:35;;;;;;;;;;;29.10;73.20;;;;;;5116215;28;19996;-63
2023/07/13 06:55:01;;;;;;;;;;;29.20;70.70;;;;;;5116368;28;20029;-63
2023/07/13 06:57:27;;;;;;;;;;;29.20;71.70;;;;;;5116265;28;20007;-62
2023/07/13 06:59:52;;;;;;;;;;;29.30;70.40;;;;;;5116345;28;20036;-64
2023/07/13 07:02:18;;;;;;;;;;;29.40;67.40;;;;;;5116127;28;19988;-65
2023/07/13 07:04:43;;;;;;;;;;;29.70;67.10;;;;;;5116114;28;19988;-63
2023/07/13 07:07:09;;;;;;;;;;;29.90;71.00;;;;;;5116067;28;20012;-64
2023/07/13 07:09:35;;;;;;;;;;;30.10;68.00;;;;;;5116070;28;19984;-63
2023/07/13 07:12:00;;;;;;;;;;;30.10;67.70;;;;;;5115883;28;20122;-62
2023/07/13 07:14:26;;;;;;;;;;;30.10;68.30;;;;;;5115855;28;20041;-63
2023/07/13 07:16:51;;;;;;;;;;;30.30;67.90;;;;;;5097570;28;19992;-63
2023/07/13 07:19:17;;;;;;;;;;;30.60;70.20;;;;;;5116063;28;19995;-63
2023/07/13 07:21:43;;;;;;;;;;;30.80;70.90;;;;;;5115874;28;20027;-62
2023/07/13 07:24:08;;;;;;;;;;;31.10;69.20;;;;;;5115803;28;20327;-64
2023/07/13 07:26:34;;;;;;;;;;;31.20;66.60;;;;;;5115787;28;20009;-64
2023/07/13 07:28:59;;;;;;;;;;;31.30;66.80;;;;;;5115557;28;19994;-63
2023/07/13 07:31:25;;;;;;;;;;;31.50;67.50;;;;;;5115526;28;19984;-63
2023/07/13 07:33:50;;;;;;;;;;;31.70;63.20;;;;;;5115580;28;20362;-62
2023/07/13 07:36:16;;;;;;;;;;;31.80;59.60;;;;;;5115409;28;20042;-62
2023/07/13 07:38:42;;;;;;;;;;;32.00;63.40;;;;;;5115361;28;19985;-62
2023/07/13 07:41:08;;;;;;;;;;;32.60;61.80;;;;;;5115646;28;19989;-64
2023/07/13 07:43:34;;;;;;;;;;;34.30;59.80;;;;;;5115458;28;19985;-63
2023/07/13 07:45:59;;;;;;;;;;;36.20;56.00;;;;;;5115120;28;20013;-64
2023/07/13 07:48:25;;;;;;;;;;;37.60;53.80;;;;;;5115045;28;20024;-62
2023/07/13 07:50:51;;;;;;;;;;;38.80;49.20;;;;;;5114793;28;20043;-65
2023/07/13 07:53:16;;;;;;;;;;;39.50;49.00;;;;;;5114586;28;20087;-63
2023/07/13 07:55:42;;;;;;;;;;;40.20;47.40;;;;;;5115000;28;20079;-63
2023/07/13 07:58:07;;;;;;;;;;;40.80;46.30;;;;;;5115015;28;20004;-64
2023/07/13 08:00:33;;;;;;;;;;;41.40;45.60;;;;;;5115063;28;19985;-63
2023/07/13 08:02:59;;;;;;;;;;;41.80;44.30;;;;;;5114901;28;20468;-61
2023/07/13 08:05:24;;;;;;;;;;;42.10;44.40;;;;;;5114843;28;20343;-64
2023/07/13 08:07:50;;;;;;;;;;;42.50;42.50;;;;;;5114776;28;19992;-64
2023/07/13 08:10:16;;;;;;;;;;;42.60;42.10;;;;;;5114795;28;19988;-65
2023/07/13 08:12:41;;;;;;;;;;;42.80;40.20;;;;;;5114799;28;19985;-64
2023/07/13 08:15:10;;;;;;;;;;;43.00;42.00;;;;;;5114755;28;20354;-64
2023/07/13 08:17:35;;;;;;;;;;;43.10;40.60;;;;;;5114373;28;20439;-64
2023/07/13 08:20:01;;;;;;;;;;;43.00;39.60;;;;;;5114881;28;20130;-64
2023/07/13 08:22:27;;;;;;;;;;;43.10;41.70;;;;;;5114594;28;19992;-64
2023/07/13 08:24:55;;;;;;;;;;;43.50;40.20;;;;;;5114611;28;19984;-62
2023/07/13 08:27:22;;;;;;;;;;;43.60;40.20;;;;;;5114686;28;20128;-63
2023/07/13 08:29:48;;;;;;;;;;;43.70;39.90;;;;;;5114821;28;19992;-64
2023/07/13 08:32:13;;;;;;;;;;;43.60;40.00;;;;;;5114479;28;19992;-64
2023/07/13 08:34:39;;;;;;;;;;;43.70;40.10;;;;;;5114305;28;19992;-62
2023/07/13 08:37:05;;;;;;;;;;;43.40;41.20;;;;;;5114650;28;20034;-63
2023/07/13 08:39:31;;;;;;;;;;;43.50;40.60;;;;;;5114603;28;20346;-63
2023/07/13 08:42:01;;;;;;;;;;;43.80;40.60;;;;;;5114256;28;19988;-65
2023/07/13 08:44:44;;;;;;;;;;;43.70;40.50;;;;;;5114369;28;20422;-64
2023/07/13 08:47:11;;;;;;;;;;;43.80;38.90;;;;;;5095681;28;20422;-64
2023/07/13 08:49:37;;;;;;;;;;;43.90;39.70;;;;;;5114359;28;19985;-64
2023/07/13 08:52:13;;;;;;;;;;;43.70;40.10;;;;;;5114447;28;19988;-63
2023/07/13 08:54:42;;;;;;;;;;;43.70;38.40;;;;;;5114119;28;19984;-63
2023/07/13 08:57:16;;;;;;;;;;;43.60;36.90;;;;;;5114322;28;20065;-62
2023/07/13 08:59:43;;;;;;;;;;;43.20;38.90;;;;;;5114094;28;20362;-63
2023/07/13 09:02:27;;;;;;;;;;;43.40;39.40;;;;;;5114403;28;20443;-62
2023/07/13 09:05:01;;;;;;;;;;;43.40;38.80;;;;;;5118598;28;20421;-63
2023/07/13 09:07:44;;;;;;;;;;;43.40;38.50;;;;;;5118735;28;20061;-62
2023/07/13 09:10:24;;;;;;;;;;;43.40;40.40;;;;;;5118301;28;20447;-63
2023/07/13 09:12:59;;;;;;;;;;;43.70;39.10;;;;;;5118236;28;19984;-62
2023/07/13 09:15:27;;;;;;;;;;;43.70;38.30;;;;;;5118028;28;19984;-62
2023/07/13 09:17:55;;;;;;;;;;;43.70;39.90;;;;;;5118471;28;19995;-64
2023/07/13 09:20:30;;;;;;;;;;;43.70;41.70;;;;;;5118118;28;19996;-65
2023/07/13 09:22:56;;;;;;;;;;;43.40;40.50;;;;;;5118072;28;19992;-65
2023/07/13 09:25:21;;;;;;;;;;;43.20;40.30;;;;;;5118061;28;19992;-62
2023/07/13 09:27:47;;;;;;;;;;;43.10;42.10;;;;;;5117669;28;20459;-63
2023/07/13 09:30:13;;;;;;;;;;;43.20;41.30;;;;;;5117910;28;20024;-62
2023/07/13 09:32:43;;;;;;;;;;;43.40;42.80;;;;;;5117880;28;20340;-65
2023/07/13 09:35:11;;;;;;;;;;;43.40;40.00;;;;;;5118134;28;19988;-63
2023/07/13 09:37:37;;;;;;;;;;;43.60;40.70;;;;;;5117944;28;20027;-64
2023/07/13 09:40:09;;;;;;;;;;;43.60;41.20;;;;;;5116971;28;19992;-65
2023/07/13 09:42:34;;;;;;;;;;;43.20;40.80;;;;;;5116379;28;19988;-64
2023/07/13 09:45:02;;;;;;;;;;;42.70;40.30;;;;;;5116737;28;19996;-64
2023/07/13 09:47:32;;;;;;;;;;;42.80;40.70;;;;;;5117469;28;20043;-62
2023/07/13 09:50:09;;;;;;;;;;;43.10;42.80;;;;;;5117567;28;19992;-65
2023/07/13 09:52:45;;;;;;;;;;;43.00;41.20;;;;;;5117752;28;19992;-63
2023/07/13 09:55:23;;;;;;;;;;;42.90;39.60;;;;;;5117544;28;19984;-62
2023/07/13 09:57:49;;;;;;;;;;;42.60;42.00;;;;;;5117073;28;20478;-62
2023/07/13 10:00:26;;;;;;;;;;;42.70;40.40;;;;;;5117217;28;19992;-65
2023/07/13 10:02:58;;;;;;;;;;;42.30;40.10;;;;;;5116361;28;19995;-62
2023/07/13 10:05:25;;;;;;;;;;;42.60;41.90;;;;;;5116447;28;19984;-64
2023/07/13 10:07:51;;;;;;;;;;;42.80;39.70;;;;;;5116972;28;20000;-64
2023/07/13 10:10:22;;;;;;;;;;;42.60;39.60;;;;;;5117059;28;20380;-62
2023/07/13 10:12:48;;;;;;;;;;;42.30;39.40;;;;;;5116597;28;20458;-65
2023/07/13 10:15:19;;;;;;;;;;;42.30;38.90;;;;;;5115753;28;20031;-64
2023/07/13 10:17:45;;;;;;;;;;;42.50;38.30;;;;;;5116892;28;19988;-64
2023/07/13 10:20:12;;;;;;;;;;;42.60;42.10;;;;;;5117212;28;19988;-64
2023/07/13 10:22:56;;;;;;;;;;;42.10;38.00;;;;;;5117173;28;20024;-62
2023/07/13 10:25:23;;;;;;;;;;;41.80;39.00;;;;;;5116991;28;20034;-63
2023/07/13 10:27:51;;;;;;;;;;;42.10;43.50;;;;;;5116542;28;20048;-65
2023/07/13 10:30:28;;;;;;;;;;;42.60;39.10;;;;;;5116952;28;20025;-63
2023/07/13 10:32:54;;;;;;;;;;;42.70;36.60;;;;;;5117002;28;19996;-63
2023/07/13 10:35:22;;;;;;;;;;;42.40;37.60;;;;;;5116631;28;19992;-62
2023/07/13 10:37:51;;;;;;;;;;;42.00;42.80;;;;;;5116758;28;19989;-62
2023/07/13 10:40:19;;;;;;;;;;;42.00;38.40;;;;;;5098281;28;20412;-64
2023/07/13 10:42:47;;;;;;;;;;;42.20;39.40;;;;;;5116428;28;19985;-62
2023/07/13 10:45:20;;;;;;;;;;;42.10;37.60;;;;;;5116422;28;20469;-63
2023/07/13 10:47:47;;;;;;;;;;;42.20;40.70;;;;;;5116256;28;20060;-64
2023/07/13 10:50:19;;;;;;;;;;;42.10;38.90;;;;;;5116328;28;19984;-64
2023/07/13 10:52:46;;;;;;;;;;;42.10;38.30;;;;;;5116467;28;19991;-64
2023/07/13 10:55:31;;;;;;;;;;;42.20;40.60;;;;;;5097862;28;20408;-63
2023/07/13 10:58:01;;;;;;;;;;;42.30;41.30;;;;;;5116202;28;20004;-65
2023/07/13 11:00:27;;;;;;;;;;;42.20;39.40;;;;;;5116190;28;19988;-64
2023/07/13 11:02:57;;;;;;;;;;;42.50;43.10;;;;;;5116165;28;20457;-65
2023/07/13 11:05:27;;;;;;;;;;;42.70;42.30;;;;;;5116391;28;19992;-65
2023/07/13 11:07:55;;;;;;;;;;;42.80;39.90;;;;;;5116359;28;19997;-62
2023/07/13 11:10:42;;;;;;;;;;;42.90;41.30;;;;;;5115767;28;19984;-64
2023/07/13 11:13:27;;;;;;;;;;;43.00;41.00;;;;;;5098855;28;20430;-64
2023/07/13 11:15:53;;;;;;;;;;;43.10;41.60;;;;;;5115960;28;19989;-63
2023/07/13 11:18:20;;;;;;;;;;;43.00;40.60;;;;;;5115893;28;20076;-63
2023/07/13 11:20:48;;;;;;;;;;;43.20;41.60;;;;;;5115732;28;20009;-65
2023/07/13 11:23:16;;;;;;;;;;;43.30;44.20;;;;;;5115710;28;19996;-62
2023/07/13 11:25:42;;;;;;;;;;;43.20;39.60;;;;;;5115314;28;19985;-63
2023/07/13 11:28:10;;;;;;;;;;;43.00;40.30;;;;;;5115578;28;20363;-65
2023/07/13 11:30:36;;;;;;;;;;;42.80;42.60;;;;;;5115590;28;19985;-64
2023/07/13 11:33:18;;;;;;;;;;;42.70;39.40;;;;;;5115543;28;19988;-64
2023/07/13 11:35:44;;;;;;;;;;;42.90;40.00;;;;;;5115458;28;20446;-64
2023/07/13 11:38:13;;;;;;;;;;;42.90;40.60;;;;;;5115408;28;19989;-62
2023/07/13 11:40:39;;;;;;;;;;;42.60;41.00;;;;;;5115222;28;20474;-62
2023/07/13 11:43:07;;;;;;;;;;;42.30;39.70;;;;;;5115237;28;20466;-62
2023/07/13 11:45:33;;;;;;;;;;;41.70;41.40;;;;;;5115500;28;19996;-64
2023/07/13 11:48:00;;;;;;;;;;;41.60;42.80;;;;;;5115108;28;20020;-63
2023/07/13 11:50:26;;;;;;;;;;;41.40;42.00;;;;;;5115380;28;20037;-63
2023/07/13 11:52:53;;;;;;;;;;;41.40;40.70;;;;;;5115211;28;20401;-62
2023/07/13 11:55:20;;;;;;;;;;;41.20;40.40;;;;;;5114912;28;20042;-64
2023/07/13 11:57:50;;;;;;;;;;;41.10;42.90;;;;;;5113405;28;20005;-63
2023/07/13 12:00:21;;;;;;;;;;;41.40;45.50;;;;;;5114306;28;20443;-62
2023/07/13 12:02:51;;;;;;;;;;;41.50;43.50;;;;;;5113717;28;20014;-64
2023/07/13 12:05:17;;;;;;;;;;;41.30;44.60;;;;;;5112950;28;20458;-62
2023/07/13 12:07:43;;;;;;;;;;;41.10;45.20;;;;;;5113124;28;20016;-63
2023/07/13 12:10:11;;;;;;;;;;;41.10;43.30;;;;;;5113570;28;20012;-62
2023/07/13 12:12:39;;;;;;;;;;;41.10;44.50;;;;;;5114144;28;20401;-64
2023/07/13 12:15:08;;;;;;;;;;;40.70;43.60;;;;;;5114167;28;19992;-63
2023/07/13 12:17:34;;;;;;;;;;;40.30;46.40;;;;;;5114000;28;20428;-63
2023/07/13 12:19:59;;;;;;;;;;;40.00;45.90;;;;;;5114691;28;19992;-63
2023/07/13 12:22:25;;;;;;;;;;;39.90;46.20;;;;;;5114477;28;20085;-62
2023/07/13 12:24:51;;;;;;;;;;;40.00;45.50;;;;;;5114610;28;20033;-63
2023/07/13 12:27:24;;;;;;;;;;;40.20;45.10;;;;;;5114385;28;20104;-62
2023/07/13 12:29:58;;;;;;;;;;;40.30;48.00;;;;;;5114430;28;20503;-62
2023/07/13 12:32:24;;;;;;;;;;;40.50;46.10;;;;;;5114411;28;20098;-64
2023/07/13 12:34:51;;;;;;;;;;;40.30;44.60;;;;;;5114539;28;20020;-64
2023/07/13 12:37:17;;;;;;;;;;;40.30;48.00;;;;;;5113742;28;19996;-62
2023/07/13 12:39:46;;;;;;;;;;;40.40;46.90;;;;;;5114263;28;19989;-63
2023/07/13 12:42:23;;;;;;;;;;;40.50;47.70;;;;;;5114294;28;20080;-62
2023/07/13 12:44:49;;;;;;;;;;;40.50;45.60;;;;;;5114610;28;19988;-64
2023/07/13 12:47:15;;;;;;;;;;;40.70;46.80;;;;;;5113596;28;20029;-63
2023/07/13 12:49:49;;;;;;;;;;;40.80;48.30;;;;;;5113850;28;20435;-63
2023/07/13 12:52:22;;;;;;;;;;;40.90;47.60;;;;;;5114230;28;19988;-63
2023/07/13 12:54:56;;;;;;;;;;;41.20;46.20;;;;;;5114471;28;20335;-65
2023/07/13 12:57:22;;;;;;;;;;;41.40;46.60;;;;;;5114126;28;20032;-63
2023/07/13 12:59:52;;;;;;;;;;;41.50;45.00;;;;;;5114091;28;20398;-62
2023/07/13 13:02:32;;;;;;;;;;;41.60;43.30;;;;;;5114100;28;20484;-62
2023/07/13 13:04:58;;;;;;;;;;;41.80;45.50;;;;;;5113610;28;19988;-62
2023/07/13 13:07:24;;;;;;;;;;;41.60;45.10;;;;;;5113879;28;20069;-64
2023/07/13 13:09:49;;;;;;;;;;;41.50;44.90;;;;;;5114068;28;20032;-65
2023/07/13 13:12:16;;;;;;;;;;;41.70;45.20;;;;;;5113993;28;19991;-63
2023/07/13 13:14:42;;;;;;;;;;;41.70;44.70;;;;;;5114128;28;19989;-63
2023/07/13 13:17:27;;;;;;;;;;;41.70;45.00;;;;;;5114009;28;20431;-63
2023/07/13 13:19:55;;;;;;;;;;;41.60;44.20;;;;;;5113887;28;19984;-63
2023/07/13 13:22:21;;;;;;;;;;;41.70;44.60;;;;;;5113760;28;20035;-63
2023/07/13 13:24:47;;;;;;;;;;;41.70;45.20;;;;;;5113913;28;20035;-64
2023/07/13 13:27:17;;;;;;;;;;;41.60;44.30;;;;;;5113743;28;20008;-62
2023/07/13 13:29:43;;;;;;;;;;;41.40;44.90;;;;;;5114133;28;19989;-63
2023/07/13 13:32:11;;;;;;;;;;;41.20;45.00;;;;;;5114189;28;20087;-62
2023/07/13 13:34:37;;;;;;;;;;;41.40;42.90;;;;;;5113497;28;19993;-64
2023/07/13 13:37:03;;;;;;;;;;;41.40;43.40;;;;;;5113852;28;20130;-62
2023/07/13 13:39:35;;;;;;;;;;;41.50;45.00;;;;;;5113783;28;20039;-62
2023/07/13 13:42:01;;;;;;;;;;;41.40;43.40;;;;;;5113711;28;20037;-65
2023/07/13 13:44:27;;;;;;;;;;;41.20;43.30;;;;;;5113804;28;20347;-62
2023/07/13 13:46:53;;;;;;;;;;;41.00;44.00;;;;;;5113454;28;20008;-62
2023/07/13 13:49:21;;;;;;;;;;;41.20;44.10;;;;;;5115534;28;19992;-65
2023/07/13 13:51:46;;;;;;;;;;;41.20;44.50;;;;;;5117600;28;19999;-64
2023/07/13 13:54:13;;;;;;;;;;;41.40;46.20;;;;;;5117449;28;19988;-64
2023/07/13 13:56:41;;;;;;;;;;;41.50;44.60;;;;;;5117281;28;20117;-62
2023/07/13 13:59:08;;;;;;;;;;;41.50;43.50;;;;;;5117683;28;20083;-65
2023/07/13 14:01:34;;;;;;;;;;;41.70;45.00;;;;;;5117432;28;20531;-61
2023/07/13 14:04:00;;;;;;;;;;;41.60;42.90;;;;;;5117038;28;19996;-62
2023/07/13 14:06:26;;;;;;;;;;;41.60;44.40;;;;;;5117375;28;20013;-64
2023/07/13 14:08:51;;;;;;;;;;;41.60;42.70;;;;;;5117491;28;20028;-62
2023/07/13 14:11:18;;;;;;;;;;;41.60;42.40;;;;;;5117029;28;20490;-64
2023/07/13 14:13:53;;;;;;;;;;;41.40;42.50;;;;;;5117451;28;19988;-63
2023/07/13 14:16:20;;;;;;;;;;;41.10;44.30;;;;;;5117014;28;19988;-63